Time,TemperatureF,DewpointF,PressureIn,WindDirection,WindDirectionDegrees,WindSpeedMPH,WindSpeedGustMPH,Humidity,HourlyPrecipIn,Conditions,Clouds,dailyrainin,SoftwareType,DateUTC
2013-04-22 00:00:00,36.1,29.3,30.12,NW,325,2.2,4.0,76,0.00,,---,0.00,VWS V14.01,2013-04-22 05:00:00,
2013-04-22 00:06:00,36.1,29.3,30.12,NNW,334,5.8,5.8,76,0.00,,---,0.00,VWS V14.01,2013-04-22 05:06:00,
2013-04-22 00:12:00,36.1,29.3,30.12,NNW,334,2.7,8.7,76,0.00,,---,0.00,VWS V14.01,2013-04-22 05:12:00,
2013-04-22 00:17:00,36.1,29.3,30.12,NW,319,8.3,8.3,76,0.00,,---,0.00,VWS V14.01,2013-04-22 05:17:00,
2013-04-22 00:22:00,36.0,29.1,30.12,NNW,328,10.1,10.1,76,0.00,,---,0.00,VWS V14.01,2013-04-22 05:22:00,
2013-04-22 00:28:00,36.0,28.8,30.12,NW,325,6.3,11.9,75,0.00,,---,0.00,VWS V14.01,2013-04-22 05:28:00,
2013-04-22 00:34:00,36.0,28.8,30.12,NNW,341,5.4,6.3,75,0.00,,---,0.00,VWS V14.01,2013-04-22 05:34:00,
2013-04-22 00:40:00,36.0,28.5,30.12,NNW,341,5.8,5.8,74,0.00,,---,0.00,VWS V14.01,2013-04-22 05:40:00,
2013-04-22 00:45:00,36.0,28.5,30.12,NNW,335,5.4,8.1,74,0.00,,---,0.00,VWS V14.01,2013-04-22 05:45:00,
2013-04-22 00:51:00,35.8,28.0,30.12,WNW,299,5.4,8.3,73,0.00,,---,0.00,VWS V14.01,2013-04-22 05:51:00,
2013-04-22 00:56:00,35.8,27.3,30.12,NW,318,8.3,11.0,71,0.00,,---,0.00,VWS V14.01,2013-04-22 05:56:00,
2013-04-22 01:01:00,35.8,27.0,30.12,NNW,342,11.0,11.0,70,0.00,,---,0.00,VWS V14.01,2013-04-22 06:01:00,
2013-04-22 01:06:00,35.8,26.3,30.12,NNE,12,5.4,6.7,68,0.00,,---,0.00,VWS V14.01,2013-04-22 06:06:00,
2013-04-22 01:12:00,35.8,25.5,30.12,North,357,8.3,11.0,66,0.00,,---,0.00,VWS V14.01,2013-04-22 06:12:00,
2013-04-22 01:17:00,35.8,25.2,30.15,NW,314,6.7,7.6,65,0.00,,---,0.00,VWS V14.01,2013-04-22 06:17:00,
2013-04-22 01:23:00,35.8,25.2,30.15,NW,324,3.6,4.0,65,0.00,,---,0.00,VWS V14.01,2013-04-22 06:23:00,
2013-04-22 01:28:00,35.6,25.4,30.15,NW,320,0.0,0.0,66,0.00,,---,0.00,VWS V14.01,2013-04-22 06:28:00,
2013-04-22 01:34:00,35.6,25.7,30.15,NW,318,6.3,8.1,67,0.00,,---,0.00,VWS V14.01,2013-04-22 06:34:00,
2013-04-22 01:39:00,35.4,26.3,30.15,NW,316,2.7,3.6,69,0.00,,---,0.00,VWS V14.01,2013-04-22 06:39:00,
2013-04-22 01:44:00,35.4,26.3,30.15,NW,324,4.0,6.3,69,0.00,,---,0.00,VWS V14.01,2013-04-22 06:44:00,
2013-04-22 01:50:00,35.4,26.3,30.15,NNW,330,2.2,3.6,69,0.00,,---,0.00,VWS V14.01,2013-04-22 06:50:00,
2013-04-22 01:55:00,35.4,26.6,30.15,NNW,330,0.0,0.0,70,0.00,,---,0.00,VWS V14.01,2013-04-22 06:55:00,
2013-04-22 02:01:00,35.2,26.5,30.15,NNW,331,2.7,6.3,70,0.00,,---,0.00,VWS V14.01,2013-04-22 07:01:00,
2013-04-22 02:07:00,35.1,25.9,30.15,NNW,332,4.0,4.0,69,0.00,,---,0.00,VWS V14.01,2013-04-22 07:07:00,
2013-04-22 02:12:00,34.9,25.8,30.15,NNW,328,3.6,3.6,69,0.00,,---,0.00,VWS V14.01,2013-04-22 07:12:00,
2013-04-22 02:17:00,34.9,25.8,30.15,WNW,302,3.6,5.8,69,0.00,,---,0.00,VWS V14.01,2013-04-22 07:17:00,
2013-04-22 02:23:00,34.7,25.2,30.15,NW,311,5.4,6.3,68,0.00,,---,0.00,VWS V14.01,2013-04-22 07:23:00,
2013-04-22 02:29:00,34.5,24.7,30.15,NW,309,5.8,6.3,67,0.00,,---,0.00,VWS V14.01,2013-04-22 07:29:00,
2013-04-22 02:34:00,34.7,24.5,30.15,NW,324,4.0,6.3,66,0.00,,---,0.00,VWS V14.01,2013-04-22 07:34:00,
2013-04-22 02:39:00,34.7,24.5,30.15,NW,326,3.6,5.8,66,0.00,,---,0.00,VWS V14.01,2013-04-22 07:39:00,
2013-04-22 02:44:00,34.7,24.1,30.15,WNW,303,5.4,5.4,65,0.00,,---,0.00,VWS V14.01,2013-04-22 07:44:00,
2013-04-22 02:50:00,34.7,23.8,30.15,NNW,334,7.6,7.6,64,0.00,,---,0.00,VWS V14.01,2013-04-22 07:50:00,
2013-04-22 02:55:00,34.7,23.8,30.15,NW,323,2.7,4.0,64,0.00,,---,0.00,VWS V14.01,2013-04-22 07:55:00,
2013-04-22 03:01:00,34.5,23.6,30.15,NNW,327,4.0,5.8,64,0.00,,---,0.00,VWS V14.01,2013-04-22 08:01:00,
2013-04-22 03:07:00,34.5,23.6,30.15,NNW,338,3.6,5.4,64,0.00,,---,0.00,VWS V14.01,2013-04-22 08:07:00,
2013-04-22 03:12:00,34.5,23.6,30.15,NNW,335,3.6,4.9,64,0.00,,---,0.00,VWS V14.01,2013-04-22 08:12:00,
2013-04-22 03:18:00,34.3,23.4,30.15,NNW,334,4.0,4.9,64,0.00,,---,0.00,VWS V14.01,2013-04-22 08:18:00,
2013-04-22 03:23:00,34.0,23.5,30.15,NNW,332,4.0,4.0,65,0.00,,---,0.00,VWS V14.01,2013-04-22 08:23:00,
2013-04-22 03:28:00,33.6,23.1,30.15,NW,320,5.4,5.4,65,0.00,,---,0.00,VWS V14.01,2013-04-22 08:28:00,
2013-04-22 03:33:00,33.1,23.0,30.15,NNW,328,5.8,5.8,66,0.00,,---,0.00,VWS V14.01,2013-04-22 08:33:00,
2013-04-22 03:39:00,32.5,22.8,30.15,NW,322,4.0,4.0,67,0.00,,---,0.00,VWS V14.01,2013-04-22 08:39:00,
2013-04-22 03:44:00,32.4,23.0,30.15,NW,323,4.5,5.8,68,0.00,,---,0.00,VWS V14.01,2013-04-22 08:44:00,
2013-04-22 03:50:00,32.2,23.2,30.15,NW,325,3.1,6.3,69,0.00,,---,0.00,VWS V14.01,2013-04-22 08:50:00,
2013-04-22 03:56:00,31.8,23.2,30.15,NNW,328,2.7,2.7,70,0.00,,---,0.00,VWS V14.01,2013-04-22 08:56:00,
2013-04-22 04:01:00,31.5,22.8,30.18,NNW,328,2.7,4.0,70,0.00,,---,0.00,VWS V14.01,2013-04-22 09:01:00,
2013-04-22 04:06:00,31.5,22.8,30.18,NNW,328,0.0,0.0,70,0.00,,---,0.00,VWS V14.01,2013-04-22 09:06:00,
2013-04-22 04:11:00,31.5,22.8,30.18,NNW,328,0.0,0.0,70,0.00,,---,0.00,VWS V14.01,2013-04-22 09:11:00,
2013-04-22 04:17:00,31.1,22.8,30.18,NNW,328,3.6,3.6,71,0.00,,---,0.00,VWS V14.01,2013-04-22 09:17:00,
2013-04-22 04:22:00,31.3,23.3,30.18,NNW,328,3.1,3.1,72,0.00,,---,0.00,VWS V14.01,2013-04-22 09:22:00,
2013-04-22 04:28:00,31.3,23.3,30.18,NNW,328,2.7,2.7,72,0.00,,---,0.00,VWS V14.01,2013-04-22 09:28:00,
2013-04-22 04:33:00,31.3,23.6,30.18,NNW,328,2.2,2.2,73,0.00,,---,0.00,VWS V14.01,2013-04-22 09:33:00,
2013-04-22 04:39:00,31.3,23.6,30.18,NNW,328,0.0,0.0,73,0.00,,---,0.00,VWS V14.01,2013-04-22 09:39:00,
2013-04-22 04:44:00,31.5,23.8,30.18,NNW,328,0.0,0.0,73,0.00,,---,0.00,VWS V14.01,2013-04-22 09:44:00,
2013-04-22 04:50:00,31.8,24.5,30.18,NNW,328,0.0,0.0,74,0.00,,---,0.00,VWS V14.01,2013-04-22 09:50:00,
2013-04-22 04:56:00,32.0,25.0,30.18,NNW,328,0.0,0.0,75,0.00,,---,0.00,VWS V14.01,2013-04-22 09:56:00,
2013-04-22 05:01:00,32.2,25.2,30.18,North,350,3.6,3.6,75,0.00,,---,0.00,VWS V14.01,2013-04-22 10:01:00,
2013-04-22 05:06:00,32.2,25.2,30.18,North,350,2.7,3.6,75,0.00,,---,0.00,VWS V14.01,2013-04-22 10:06:00,
2013-04-22 05:12:00,32.2,25.2,30.18,NNW,327,4.0,4.0,75,0.00,,---,0.00,VWS V14.01,2013-04-22 10:12:00,
2013-04-22 05:17:00,32.0,25.0,30.21,NNW,333,0.0,0.0,75,0.00,,---,0.00,VWS V14.01,2013-04-22 10:17:00,
2013-04-22 05:22:00,31.5,24.5,30.21,NNE,21,4.9,4.9,75,0.00,,---,0.00,VWS V14.01,2013-04-22 10:22:00,
2013-04-22 05:28:00,31.1,24.1,30.21,North,0,3.1,5.8,75,0.00,,---,0.00,VWS V14.01,2013-04-22 10:28:00,
2013-04-22 05:34:00,31.1,24.4,30.18,NW,315,6.3,6.3,76,0.00,,---,0.00,VWS V14.01,2013-04-22 10:34:00,
2013-04-22 05:39:00,30.9,24.3,30.18,North,5,4.9,5.8,76,0.00,,---,0.00,VWS V14.01,2013-04-22 10:39:00,
2013-04-22 05:45:00,30.7,23.8,30.18,NNE,13,4.9,4.9,75,0.00,,---,0.00,VWS V14.01,2013-04-22 10:45:00,
2013-04-22 05:50:00,30.6,23.0,30.18,North,7,5.4,5.4,73,0.00,,---,0.00,VWS V14.01,2013-04-22 10:50:00,
2013-04-22 05:55:00,30.6,23.0,30.18,North,7,2.7,5.8,73,0.00,,---,0.00,VWS V14.01,2013-04-22 10:55:00,
2013-04-22 06:01:00,30.4,22.8,30.18,North,357,2.7,6.3,73,0.00,,---,0.00,VWS V14.01,2013-04-22 11:01:00,
2013-04-22 06:06:00,30.4,22.5,30.18,North,357,0.0,6.3,72,0.00,,---,0.00,VWS V14.01,2013-04-22 11:06:00,
2013-04-22 06:11:00,30.4,22.5,30.18,NE,42,0.0,4.0,72,0.00,,---,0.00,VWS V14.01,2013-04-22 11:11:00,
2013-04-22 06:17:00,30.2,22.3,30.21,NE,50,0.0,0.0,72,0.00,,---,0.00,VWS V14.01,2013-04-22 11:17:00,
2013-04-22 06:23:00,30.0,22.1,30.21,NE,49,0.0,0.0,72,0.00,,---,0.00,VWS V14.01,2013-04-22 11:23:00,
2013-04-22 06:29:00,29.7,21.8,30.21,NE,49,0.0,0.0,72,0.00,,---,0.00,VWS V14.01,2013-04-22 11:29:00,
2013-04-22 06:34:00,29.5,21.6,30.21,NE,49,0.0,0.0,72,0.00,,---,0.00,VWS V14.01,2013-04-22 11:34:00,
2013-04-22 06:39:00,29.7,21.8,30.21,NE,49,0.0,0.0,72,0.00,,---,0.00,VWS V14.01,2013-04-22 11:39:00,
2013-04-22 06:44:00,30.0,22.4,30.21,NE,45,0.0,0.0,73,0.00,,---,0.00,VWS V14.01,2013-04-22 11:44:00,
2013-04-22 06:50:00,30.2,22.6,30.21,North,10,2.7,3.1,73,0.00,,---,0.00,VWS V14.01,2013-04-22 11:50:00,
2013-04-22 06:56:00,30.6,23.0,30.21,North,10,2.2,2.7,73,0.00,,---,0.00,VWS V14.01,2013-04-22 11:56:00,
2013-04-22 07:02:00,30.6,22.6,30.21,North,9,0.0,0.0,72,0.00,,---,0.00,VWS V14.01,2013-04-22 12:02:00,
2013-04-22 07:07:00,31.1,23.5,30.21,North,9,0.0,0.0,73,0.00,,---,0.00,VWS V14.01,2013-04-22 12:07:00,
2013-04-22 07:13:00,31.5,23.5,30.21,North,9,0.0,0.0,72,0.00,,---,0.00,VWS V14.01,2013-04-22 12:13:00,
2013-04-22 07:18:00,32.2,24.2,30.21,NNE,13,3.1,4.0,72,0.00,,---,0.00,VWS V14.01,2013-04-22 12:18:00,
2013-04-22 07:23:00,32.9,24.9,30.21,NNE,30,4.9,4.9,72,0.00,,---,0.00,VWS V14.01,2013-04-22 12:23:00,
2013-04-22 07:28:00,33.4,24.0,30.21,NE,46,3.1,4.5,68,0.00,,---,0.00,VWS V14.01,2013-04-22 12:28:00,
2013-04-22 07:34:00,33.8,22.9,30.21,NE,44,3.6,4.0,64,0.00,,---,0.00,VWS V14.01,2013-04-22 12:34:00,
2013-04-22 07:39:00,34.9,23.2,30.21,NE,40,5.8,5.8,62,0.00,,---,0.00,VWS V14.01,2013-04-22 12:39:00,
2013-04-22 07:45:00,35.8,21.6,30.21,North,353,7.6,7.6,56,0.00,,---,0.00,VWS V14.01,2013-04-22 12:45:00,
2013-04-22 07:51:00,36.1,20.7,30.21,North,357,5.4,7.6,53,0.00,,---,0.00,VWS V14.01,2013-04-22 12:51:00,
2013-04-22 07:56:00,36.0,20.5,30.21,North,7,4.0,5.8,53,0.00,,---,0.00,VWS V14.01,2013-04-22 12:56:00,
2013-04-22 08:02:00,35.6,20.2,30.18,North,0,3.6,4.0,53,0.00,,---,0.00,VWS V14.01,2013-04-22 13:02:00,
2013-04-22 08:08:00,34.9,19.9,30.18,NNW,346,3.6,9.2,54,0.00,,---,0.00,VWS V14.01,2013-04-22 13:08:00,
2013-04-22 08:13:00,34.7,20.2,30.18,NNE,28,6.3,8.1,55,0.00,,---,0.00,VWS V14.01,2013-04-22 13:13:00,
2013-04-22 08:19:00,34.3,20.3,30.18,North,353,8.3,8.3,56,0.00,,---,0.00,VWS V14.01,2013-04-22 13:19:00,
2013-04-22 08:24:00,34.3,20.3,30.18,NNE,30,3.6,9.2,56,0.00,,---,0.00,VWS V14.01,2013-04-22 13:24:00,
2013-04-22 08:30:00,34.9,20.4,30.18,NNE,15,4.0,8.1,55,0.00,,---,0.00,VWS V14.01,2013-04-22 13:30:00,
2013-04-22 08:36:00,34.9,20.4,30.18,NNE,24,3.1,5.8,55,0.00,,---,0.00,VWS V14.01,2013-04-22 13:36:00,
2013-04-22 08:41:00,34.9,20.8,30.18,North,6,2.7,4.0,56,0.00,,---,0.00,VWS V14.01,2013-04-22 13:41:00,
2013-04-22 08:47:00,35.1,20.5,30.21,NNE,28,4.0,5.4,55,0.00,,---,0.00,VWS V14.01,2013-04-22 13:47:00,
2013-04-22 08:52:00,35.1,21.4,30.21,NE,42,5.8,5.8,57,0.00,,---,0.00,VWS V14.01,2013-04-22 13:52:00,
2013-04-22 08:57:00,35.6,21.0,30.21,NNE,21,8.7,10.5,55,0.00,,---,0.00,VWS V14.01,2013-04-22 13:57:00,
2013-04-22 09:02:00,36.3,22.1,30.21,NE,38,8.1,8.1,56,0.00,,---,0.00,VWS V14.01,2013-04-22 14:02:00,
2013-04-22 09:08:00,36.5,21.9,30.21,NE,51,5.8,5.8,55,0.00,,---,0.00,VWS V14.01,2013-04-22 14:08:00,
2013-04-22 09:14:00,36.7,20.7,30.21,NE,38,4.0,8.3,52,0.00,,---,0.00,VWS V14.01,2013-04-22 14:14:00,
2013-04-22 09:19:00,36.9,21.3,30.21,NNE,26,8.1,8.1,53,0.00,,---,0.00,VWS V14.01,2013-04-22 14:19:00,
2013-04-22 09:24:00,36.5,21.5,30.21,NE,56,8.1,8.1,54,0.00,,---,0.00,VWS V14.01,2013-04-22 14:24:00,
2013-04-22 09:30:00,36.3,22.1,30.21,NE,48,5.4,8.7,56,0.00,,---,0.00,VWS V14.01,2013-04-22 14:30:00,
2013-04-22 09:35:00,36.7,21.6,30.21,NE,44,10.5,10.5,54,0.00,,---,0.00,VWS V14.01,2013-04-22 14:35:00,
2013-04-22 09:41:00,37.0,22.4,30.21,NNE,18,5.4,8.7,55,0.00,,---,0.00,VWS V14.01,2013-04-22 14:41:00,
2013-04-22 09:46:00,37.9,21.4,30.21,NNE,17,5.4,8.7,51,0.00,,---,0.00,VWS V14.01,2013-04-22 14:46:00,
2013-04-22 09:52:00,38.3,22.2,30.21,North,7,7.2,8.1,52,0.00,,---,0.00,VWS V14.01,2013-04-22 14:52:00,
2013-04-22 09:57:00,37.6,21.6,30.21,NNE,19,10.1,12.8,52,0.00,,---,0.00,VWS V14.01,2013-04-22 14:57:00,
2013-04-22 10:02:00,37.6,21.6,30.21,NNE,28,8.3,12.8,52,0.00,,---,0.00,VWS V14.01,2013-04-22 15:02:00,
2013-04-22 10:07:00,37.8,21.3,30.21,NNE,26,8.3,11.0,51,0.00,,---,0.00,VWS V14.01,2013-04-22 15:07:00,
2013-04-22 10:13:00,37.9,22.4,30.21,NE,45,8.7,8.7,53,0.00,,---,0.00,VWS V14.01,2013-04-22 15:13:00,
2013-04-22 10:19:00,37.2,22.1,30.21,NE,48,8.7,11.0,54,0.00,,---,0.00,VWS V14.01,2013-04-22 15:19:00,
2013-04-22 10:24:00,36.9,22.2,30.21,NE,52,6.3,12.8,55,0.00,,---,0.00,VWS V14.01,2013-04-22 15:24:00,
2013-04-22 10:29:00,37.8,21.7,30.21,NE,41,9.2,9.2,52,0.00,,---,0.00,VWS V14.01,2013-04-22 15:29:00,
2013-04-22 10:34:00,37.4,21.9,30.21,NE,47,10.1,10.5,53,0.00,,---,0.00,VWS V14.01,2013-04-22 15:34:00,
2013-04-22 10:40:00,36.7,22.0,30.21,NE,41,10.1,10.1,55,0.00,,---,0.00,VWS V14.01,2013-04-22 15:40:00,
2013-04-22 10:45:00,37.4,22.3,30.21,NE,39,10.1,10.1,54,0.00,,---,0.00,VWS V14.01,2013-04-22 15:45:00,
2013-04-22 10:50:00,37.6,22.9,30.21,NE,45,7.6,7.6,55,0.00,,---,0.00,VWS V14.01,2013-04-22 15:50:00,
2013-04-22 10:56:00,37.6,22.5,30.21,NE,49,5.8,10.1,54,0.00,,---,0.00,VWS V14.01,2013-04-22 15:56:00,
2013-04-22 11:01:00,38.1,22.5,30.24,NE,41,8.3,8.3,53,0.00,,---,0.00,VWS V14.01,2013-04-22 16:01:00,
2013-04-22 11:07:00,38.3,22.2,30.24,NE,49,6.3,6.3,52,0.00,,---,0.00,VWS V14.01,2013-04-22 16:07:00,
2013-04-22 11:12:00,38.5,21.9,30.24,NNE,20,8.1,8.1,51,0.00,,---,0.00,VWS V14.01,2013-04-22 16:12:00,
2013-04-22 11:17:00,38.8,22.3,30.24,NE,35,5.4,5.8,51,0.00,,---,0.00,VWS V14.01,2013-04-22 16:17:00,
2013-04-22 11:22:00,38.8,21.8,30.24,NNE,24,5.8,7.6,50,0.00,,---,0.00,VWS V14.01,2013-04-22 16:22:00,
2013-04-22 11:27:00,39.2,22.1,30.24,NNE,25,5.4,6.3,50,0.00,,---,0.00,VWS V14.01,2013-04-22 16:27:00,
2013-04-22 11:33:00,40.6,23.5,30.24,North,353,3.6,5.4,50,0.00,,---,0.00,VWS V14.01,2013-04-22 16:33:00,
2013-04-22 11:38:00,41.2,22.5,30.24,NE,38,5.8,5.8,47,0.00,,---,0.00,VWS V14.01,2013-04-22 16:38:00,
2013-04-22 11:43:00,40.8,22.7,30.24,North,0,4.0,4.0,48,0.00,,---,0.00,VWS V14.01,2013-04-22 16:43:00,
2013-04-22 11:48:00,40.5,21.3,30.24,North,1,5.8,5.8,46,0.00,,---,0.00,VWS V14.01,2013-04-22 16:48:00,
2013-04-22 11:54:00,41.5,22.3,30.24,North,3,5.8,8.1,46,0.00,,---,0.00,VWS V14.01,2013-04-22 16:54:00,
2013-04-22 11:59:00,42.1,22.8,30.24,NNE,28,5.8,7.6,46,0.00,,---,0.00,VWS V14.01,2013-04-22 16:59:00,
2013-04-22 12:04:00,41.7,21.4,30.24,NNE,24,8.3,8.3,44,0.00,,---,0.00,VWS V14.01,2013-04-22 17:04:00,
2013-04-22 12:10:00,41.7,20.9,30.24,NNE,18,4.0,15.4,43,0.00,,---,0.00,VWS V14.01,2013-04-22 17:10:00,
2013-04-22 12:15:00,43.0,22.0,30.21,NNE,33,7.6,8.3,43,0.00,,---,0.00,VWS V14.01,2013-04-22 17:15:00,
2013-04-22 12:20:00,42.6,21.1,30.21,NNE,27,10.1,12.8,42,0.00,,---,0.00,VWS V14.01,2013-04-22 17:20:00,
2013-04-22 12:26:00,41.4,20.0,30.21,North,9,8.7,8.7,42,0.00,,---,0.00,VWS V14.01,2013-04-22 17:26:00,
2013-04-22 12:31:00,41.0,20.8,30.21,NE,38,8.3,8.7,44,0.00,,---,0.00,VWS V14.01,2013-04-22 17:31:00,
2013-04-22 12:36:00,39.2,19.1,30.21,NNE,22,7.2,13.2,44,0.00,,---,0.00,VWS V14.01,2013-04-22 17:36:00,
2013-04-22 12:41:00,40.5,19.7,30.21,NNE,32,5.4,8.7,43,0.00,,---,0.00,VWS V14.01,2013-04-22 17:41:00,
2013-04-22 12:47:00,41.0,19.1,30.21,NNE,15,5.4,8.1,41,0.00,,---,0.00,VWS V14.01,2013-04-22 17:47:00,
2013-04-22 12:53:00,40.5,18.6,30.21,NNE,29,11.0,11.0,41,0.00,,---,0.00,VWS V14.01,2013-04-22 17:53:00,
2013-04-22 12:59:00,42.1,19.5,30.18,North,3,8.1,12.8,40,0.00,,---,0.00,VWS V14.01,2013-04-22 17:59:00,
2013-04-22 13:04:00,42.3,19.1,30.18,NNE,30,6.3,12.8,39,0.00,,---,0.00,VWS V14.01,2013-04-22 18:04:00,
2013-04-22 13:09:00,41.5,18.4,30.18,North,2,8.7,12.3,39,0.00,,---,0.00,VWS V14.01,2013-04-22 18:09:00,
2013-04-22 13:14:00,39.9,17.6,30.18,NE,45,8.1,11.4,40,0.00,,---,0.00,VWS V14.01,2013-04-22 18:14:00,
2013-04-22 13:20:00,39.9,17.6,30.18,NNE,21,11.0,11.0,40,0.00,,---,0.00,VWS V14.01,2013-04-22 18:20:00,
2013-04-22 13:25:00,39.7,17.4,30.18,NE,37,14.5,14.5,40,0.00,,---,0.00,VWS V14.01,2013-04-22 18:25:00,
2013-04-22 13:30:00,39.6,17.2,30.18,North,0,7.6,9.6,40,0.00,,---,0.00,VWS V14.01,2013-04-22 18:30:00,
2013-04-22 13:35:00,40.1,17.7,30.18,NNE,26,8.3,8.3,40,0.00,,---,0.00,VWS V14.01,2013-04-22 18:35:00,
2013-04-22 13:40:00,40.5,18.1,30.18,NNW,333,4.9,9.2,40,0.00,,---,0.00,VWS V14.01,2013-04-22 18:40:00,
2013-04-22 13:45:00,40.1,17.7,30.15,NE,52,11.4,11.4,40,0.00,,---,0.00,VWS V14.01,2013-04-22 18:45:00,
2013-04-22 13:50:00,39.7,17.4,30.15,NNW,344,4.0,6.3,40,0.00,,---,0.00,VWS V14.01,2013-04-22 18:50:00,
2013-04-22 13:56:00,39.6,17.2,30.15,NNW,327,5.4,11.0,40,0.00,,---,0.00,VWS V14.01,2013-04-22 18:56:00,
2013-04-22 14:02:00,39.0,16.8,30.18,NW,325,6.3,6.3,40,0.00,,---,0.00,VWS V14.01,2013-04-22 19:02:00,
2013-04-22 14:07:00,38.8,16.6,30.18,North,5,3.6,5.8,40,0.00,,---,0.00,VWS V14.01,2013-04-22 19:07:00,
2013-04-22 14:13:00,38.8,16.6,30.18,North,350,8.1,8.1,40,0.00,,---,0.00,VWS V14.01,2013-04-22 19:13:00,
2013-04-22 14:18:00,38.8,16.6,30.21,NNW,339,8.3,10.5,40,0.00,,---,0.00,VWS V14.01,2013-04-22 19:18:00,
2013-04-22 14:23:00,38.8,16.6,30.21,NNW,348,6.3,6.3,40,0.00,,---,0.00,VWS V14.01,2013-04-22 19:23:00,
2013-04-22 14:29:00,38.8,16.6,30.21,North,3,5.4,8.3,40,0.00,,---,0.00,VWS V14.01,2013-04-22 19:29:00,
2013-04-22 14:34:00,38.8,16.6,30.21,NNW,338,13.2,13.2,40,0.00,,---,0.00,VWS V14.01,2013-04-22 19:34:00,
2013-04-22 14:40:00,38.3,16.7,30.21,North,353,8.3,9.6,41,0.00,,---,0.00,VWS V14.01,2013-04-22 19:40:00,
2013-04-22 14:45:00,37.0,18.2,30.21,NNE,22,5.8,11.0,46,0.00,,---,0.00,VWS V14.01,2013-04-22 19:45:00,
2013-04-22 14:51:00,36.9,20.0,30.21,North,353,12.8,12.8,50,0.00,,---,0.00,VWS V14.01,2013-04-22 19:51:00,
2013-04-22 14:56:00,36.1,21.5,30.21,North,0,5.4,8.1,55,0.00,,---,0.00,VWS V14.01,2013-04-22 19:56:00,
2013-04-22 15:01:00,35.4,22.1,30.21,NNE,19,4.0,6.3,58,0.00,,---,0.00,VWS V14.01,2013-04-22 20:01:00,
2013-04-22 15:06:00,35.2,22.8,30.21,North,7,4.0,6.3,60,0.00,,---,0.00,VWS V14.01,2013-04-22 20:06:00,
2013-04-22 15:12:00,34.9,24.0,30.21,NNE,22,5.8,5.8,64,0.00,,---,0.00,VWS V14.01,2013-04-22 20:12:00,
2013-04-22 15:17:00,34.3,25.2,30.21,North,353,3.6,6.3,69,0.00,,---,0.00,VWS V14.01,2013-04-22 20:17:00,
2013-04-22 15:22:00,34.0,25.6,30.21,North,353,3.1,8.3,71,0.00,,---,0.00,VWS V14.01,2013-04-22 20:22:00,
2013-04-22 15:27:00,34.2,26.1,30.21,North,353,6.7,8.1,72,0.00,,---,0.00,VWS V14.01,2013-04-22 20:27:00,
2013-04-22 15:33:00,34.0,26.2,30.18,NNE,21,8.1,10.1,73,0.00,,---,0.00,VWS V14.01,2013-04-22 20:33:00,
2013-04-22 15:38:00,33.8,26.4,30.18,NNE,18,4.0,7.6,74,0.00,,---,0.00,VWS V14.01,2013-04-22 20:38:00,
2013-04-22 15:44:00,33.6,26.9,30.18,NE,37,7.6,10.5,76,0.00,,---,0.00,VWS V14.01,2013-04-22 20:44:00,
2013-04-22 15:49:00,33.6,26.9,30.18,North,3,5.4,6.7,76,0.00,,---,0.00,VWS V14.01,2013-04-22 20:49:00,
2013-04-22 15:55:00,33.8,27.4,30.18,NNE,15,5.4,5.4,77,0.00,,---,0.00,VWS V14.01,2013-04-22 20:55:00,
2013-04-22 16:00:00,33.6,27.2,30.18,NNE,22,5.4,10.1,77,0.00,,---,0.00,VWS V14.01,2013-04-22 21:00:00,
2013-04-22 16:05:00,33.6,27.2,30.18,NNE,27,7.6,7.6,77,0.00,,---,0.00,VWS V14.01,2013-04-22 21:05:00,
2013-04-22 16:11:00,33.6,27.2,30.18,North,8,5.8,8.1,77,0.00,,---,0.00,VWS V14.01,2013-04-22 21:11:00,
2013-04-22 16:17:00,33.4,27.0,30.18,North,357,8.7,8.7,77,0.00,,---,0.00,VWS V14.01,2013-04-22 21:17:00,
2013-04-22 16:22:00,33.3,26.8,30.18,NNW,348,5.4,6.3,77,0.00,,---,0.00,VWS V14.01,2013-04-22 21:22:00,
2013-04-22 16:28:00,33.1,26.7,30.18,NE,47,5.8,8.3,77,0.00,,---,0.00,VWS V14.01,2013-04-22 21:28:00,
2013-04-22 16:33:00,33.1,27.0,30.18,NNE,20,8.1,8.1,78,0.00,,---,0.00,VWS V14.01,2013-04-22 21:33:00,
2013-04-22 16:38:00,32.9,26.8,30.18,North,9,8.1,8.1,78,0.00,,---,0.00,VWS V14.01,2013-04-22 21:38:00,
2013-04-22 16:44:00,32.9,27.1,30.18,North,4,8.3,8.7,79,0.00,,---,0.00,VWS V14.01,2013-04-22 21:44:00,
2013-04-22 16:50:00,32.7,27.2,30.18,North,357,8.1,8.1,80,0.00,,---,0.00,VWS V14.01,2013-04-22 21:50:00,
2013-04-22 16:55:00,32.7,27.2,30.18,North,353,2.2,8.3,80,0.00,,---,0.00,VWS V14.01,2013-04-22 21:55:00,
2013-04-22 17:01:00,32.9,27.7,30.18,North,8,7.6,7.6,81,0.00,,---,0.00,VWS V14.01,2013-04-22 22:01:00,
2013-04-22 17:07:00,32.9,27.7,30.18,NNW,337,3.6,5.4,81,0.00,,---,0.00,VWS V14.01,2013-04-22 22:07:00,
2013-04-22 17:12:00,33.1,27.9,30.18,North,353,7.6,7.6,81,0.00,,---,0.00,VWS V14.01,2013-04-22 22:12:00,
2013-04-22 17:18:00,33.1,27.9,30.18,NNW,344,5.8,8.7,81,0.00,,---,0.00,VWS V14.01,2013-04-22 22:18:00,
2013-04-22 17:23:00,33.1,27.9,30.18,NNW,333,7.6,7.6,81,0.00,,---,0.00,VWS V14.01,2013-04-22 22:23:00,
2013-04-22 17:28:00,33.1,27.9,30.18,NNE,29,8.1,8.1,81,0.00,,---,0.00,VWS V14.01,2013-04-22 22:28:00,
2013-04-22 17:33:00,33.1,27.9,30.18,North,353,8.7,8.7,81,0.00,,---,0.00,VWS V14.01,2013-04-22 22:33:00,
2013-04-22 17:39:00,33.1,27.9,30.18,NNW,341,3.6,3.6,81,0.00,,---,0.00,VWS V14.01,2013-04-22 22:39:00,
2013-04-22 17:45:00,32.9,27.7,30.18,NNW,345,8.7,11.0,81,0.00,,---,0.00,VWS V14.01,2013-04-22 22:45:00,
2013-04-22 17:50:00,32.7,27.2,30.18,North,353,9.2,9.2,80,0.00,,---,0.00,VWS V14.01,2013-04-22 22:50:00,
2013-04-22 17:56:00,32.7,27.2,30.18,NW,323,7.6,7.6,80,0.00,,---,0.00,VWS V14.01,2013-04-22 22:56:00,
2013-04-22 18:01:00,32.9,27.7,30.18,NE,44,5.8,8.1,81,0.00,,---,0.00,VWS V14.01,2013-04-22 23:01:00,
2013-04-22 18:06:00,32.7,27.5,30.18,NE,42,5.8,7.6,81,0.00,,---,0.00,VWS V14.01,2013-04-22 23:06:00,
2013-04-22 18:12:00,32.7,27.2,30.18,NNE,18,8.1,8.1,80,0.00,,---,0.00,VWS V14.01,2013-04-22 23:12:00,
2013-04-22 18:17:00,32.7,27.2,30.18,NNE,16,8.7,8.7,80,0.00,,---,0.00,VWS V14.01,2013-04-22 23:17:00,
2013-04-22 18:23:00,32.7,27.5,30.18,North,353,4.0,6.3,81,0.00,,---,0.00,VWS V14.01,2013-04-22 23:23:00,
2013-04-22 18:28:00,32.7,27.5,30.18,NNW,343,5.8,5.8,81,0.00,,---,0.00,VWS V14.01,2013-04-22 23:28:00,
2013-04-22 18:34:00,32.7,27.5,30.18,North,7,5.8,5.8,81,0.00,,---,0.00,VWS V14.01,2013-04-22 23:34:00,
2013-04-22 18:39:00,32.7,27.5,30.18,North,357,5.4,5.4,81,0.00,,---,0.00,VWS V14.01,2013-04-22 23:39:00,
2013-04-22 18:45:00,32.7,27.5,30.18,NNW,329,8.1,8.3,81,0.00,,---,0.00,VWS V14.01,2013-04-22 23:45:00,
2013-04-22 18:50:00,32.7,27.5,30.18,NNW,329,4.0,4.5,81,0.00,,---,0.00,VWS V14.01,2013-04-22 23:50:00,
2013-04-22 18:55:00,32.5,27.4,30.18,North,357,5.4,5.8,81,0.00,,---,0.00,VWS V14.01,2013-04-22 23:55:00,
2013-04-22 19:00:00,32.5,27.7,30.18,NW,316,3.6,3.6,82,0.00,,---,0.00,VWS V14.01,2013-04-23 00:00:00,
2013-04-22 19:06:00,32.7,27.8,30.18,NNE,15,5.8,7.6,82,0.00,,---,0.00,VWS V14.01,2013-04-23 00:06:00,
2013-04-22 19:11:00,32.7,27.8,30.18,NW,320,4.0,8.7,82,0.00,,---,0.00,VWS V14.01,2013-04-23 00:11:00,
2013-04-22 19:17:00,32.7,27.8,30.18,NNE,29,5.4,6.3,82,0.00,,---,0.00,VWS V14.01,2013-04-23 00:17:00,
2013-04-22 19:22:00,32.5,27.7,30.18,North,357,6.3,8.1,82,0.00,,---,0.00,VWS V14.01,2013-04-23 00:22:00,
2013-04-22 19:27:00,32.5,27.7,30.18,NNW,333,5.8,5.8,82,0.00,,---,0.00,VWS V14.01,2013-04-23 00:27:00,
2013-04-22 19:32:00,32.5,27.7,30.21,NNW,344,3.1,6.3,82,0.00,,---,0.00,VWS V14.01,2013-04-23 00:32:00,
2013-04-22 19:38:00,32.4,27.8,30.21,North,5,7.6,8.7,83,0.00,,---,0.00,VWS V14.01,2013-04-23 00:38:00,
2013-04-22 19:43:00,32.4,27.8,30.21,NNE,22,11.0,11.0,83,0.00,,---,0.00,VWS V14.01,2013-04-23 00:43:00,
2013-04-22 19:49:00,32.2,27.6,30.21,NE,35,7.6,9.6,83,0.00,,---,0.00,VWS V14.01,2013-04-23 00:49:00,
2013-04-22 19:54:00,32.0,27.4,30.21,North,353,6.3,11.0,83,0.00,,---,0.00,VWS V14.01,2013-04-23 00:54:00,
2013-04-22 20:00:00,32.0,27.7,30.21,North,353,6.3,6.3,84,0.00,,---,0.00,VWS V14.01,2013-04-23 01:00:00,
2013-04-22 20:05:00,32.0,27.7,30.21,North,5,7.6,7.6,84,0.00,,---,0.00,VWS V14.01,2013-04-23 01:05:00,
2013-04-22 20:11:00,32.0,27.7,30.21,North,0,5.4,9.6,84,0.00,,---,0.00,VWS V14.01,2013-04-23 01:11:00,
2013-04-22 20:16:00,32.0,27.7,30.21,NW,321,4.9,7.2,84,0.00,,---,0.00,VWS V14.01,2013-04-23 01:16:00,
2013-04-22 20:22:00,31.8,27.8,30.21,North,353,5.8,5.8,85,0.00,,---,0.00,VWS V14.01,2013-04-23 01:22:00,
2013-04-22 20:28:00,32.0,28.0,30.21,NNW,335,8.3,8.3,85,0.00,,---,0.00,VWS V14.01,2013-04-23 01:28:00,
2013-04-22 20:33:00,31.8,27.8,30.18,North,353,5.4,8.1,85,0.00,,---,0.00,VWS V14.01,2013-04-23 01:33:00,
2013-04-22 20:38:00,31.8,27.8,30.18,North,0,5.8,5.8,85,0.00,,---,0.00,VWS V14.01,2013-04-23 01:38:00,
2013-04-22 20:44:00,32.0,28.0,30.18,North,353,6.3,6.3,85,0.00,,---,0.00,VWS V14.01,2013-04-23 01:44:00,
2013-04-22 20:49:00,32.0,28.0,30.18,North,350,5.8,5.8,85,0.00,,---,0.00,VWS V14.01,2013-04-23 01:49:00,
2013-04-22 20:54:00,31.8,27.8,30.18,North,0,4.9,8.7,85,0.00,,---,0.00,VWS V14.01,2013-04-23 01:54:00,
2013-04-22 20:59:00,32.0,28.3,30.18,North,0,8.3,8.3,86,0.00,,---,0.00,VWS V14.01,2013-04-23 01:59:00,
2013-04-22 21:04:00,32.0,28.3,30.18,North,357,8.7,8.7,86,0.00,,---,0.00,VWS V14.01,2013-04-23 02:04:00,
2013-04-22 21:09:00,32.0,28.3,30.18,NNW,346,6.3,8.3,86,0.00,,---,0.00,VWS V14.01,2013-04-23 02:09:00,
2013-04-22 21:15:00,32.0,28.3,30.21,NNW,348,4.0,7.2,86,0.00,,---,0.00,VWS V14.01,2013-04-23 02:15:00,
2013-04-22 21:20:00,32.0,28.3,30.21,NNW,332,5.4,5.4,86,0.00,,---,0.00,VWS V14.01,2013-04-23 02:20:00,
2013-04-22 21:26:00,32.0,28.3,30.21,NNW,336,6.3,6.3,86,0.00,,---,0.00,VWS V14.01,2013-04-23 02:26:00,
2013-04-22 21:31:00,32.0,28.6,30.18,NNW,341,7.6,10.1,87,0.00,,---,0.00,VWS V14.01,2013-04-23 02:31:00,
2013-04-22 21:37:00,31.8,28.4,30.18,North,353,5.8,6.3,87,0.00,,---,0.00,VWS V14.01,2013-04-23 02:37:00,
2013-04-22 21:43:00,32.0,28.6,30.18,North,353,5.8,5.8,87,0.00,,---,0.00,VWS V14.01,2013-04-23 02:43:00,
2013-04-22 21:48:00,32.0,28.6,30.21,North,357,8.1,8.1,87,0.00,,---,0.00,VWS V14.01,2013-04-23 02:48:00,
2013-04-22 21:54:00,32.0,28.3,30.21,NNW,332,8.7,8.7,86,0.00,,---,0.00,VWS V14.01,2013-04-23 02:54:00,
2013-04-22 21:59:00,32.0,28.3,30.18,North,6,5.8,10.1,86,0.00,,---,0.00,VWS V14.01,2013-04-23 02:59:00,
2013-04-22 22:05:00,32.0,28.3,30.18,North,357,3.6,5.8,86,0.00,,---,0.00,VWS V14.01,2013-04-23 03:05:00,
2013-04-22 22:10:00,32.0,28.3,30.18,NNW,329,4.0,6.3,86,0.00,,---,0.00,VWS V14.01,2013-04-23 03:10:00,
2013-04-22 22:16:00,32.0,28.3,30.21,NNW,340,3.6,6.3,86,0.00,,---,0.00,VWS V14.01,2013-04-23 03:16:00,
2013-04-22 22:21:00,32.0,28.3,30.21,North,349,7.6,7.6,86,0.00,,---,0.00,VWS V14.01,2013-04-23 03:21:00,
2013-04-22 22:27:00,32.0,28.3,30.21,North,0,4.9,5.8,86,0.00,,---,0.00,VWS V14.01,2013-04-23 03:27:00,
2013-04-22 22:32:00,32.0,28.3,30.21,NNE,15,3.6,7.6,86,0.00,,---,0.00,VWS V14.01,2013-04-23 03:32:00,
2013-04-22 22:38:00,32.0,28.3,30.21,North,5,3.6,4.9,86,0.00,,---,0.00,VWS V14.01,2013-04-23 03:38:00,
2013-04-22 22:43:00,32.0,28.3,30.21,NNE,12,3.1,6.3,86,0.00,,---,0.00,VWS V14.01,2013-04-23 03:43:00,
2013-04-22 22:48:00,32.0,28.3,30.21,North,0,4.0,4.0,86,0.00,,---,0.00,VWS V14.01,2013-04-23 03:48:00,
2013-04-22 22:53:00,32.0,28.3,30.21,North,3,5.8,8.1,86,0.00,,---,0.00,VWS V14.01,2013-04-23 03:53:00,
2013-04-22 22:58:00,32.0,28.3,30.21,NW,311,0.0,3.6,86,0.00,,---,0.00,VWS V14.01,2013-04-23 03:58:00,
2013-04-22 23:01:00,32.0,28.3,30.21,NNW,337,3.1,3.6,86,0.00,,---,0.00,VWS V14.01,2013-04-23 04:01:00,
2013-04-22 23:02:00,32.0,28.3,30.21,NNW,340,2.7,3.1,86,0.00,,---,0.00,VWS V14.01,2013-04-23 04:02:00,
2013-04-22 23:03:00,32.0,28.3,30.21,NNW,339,3.1,3.6,86,0.00,,---,0.00,VWS V14.01,2013-04-23 04:03:00,
2013-04-22 23:07:00,32.0,28.0,30.21,North,353,2.7,3.1,85,0.00,,---,0.00,VWS V14.01,2013-04-23 04:07:00,
2013-04-22 23:10:00,32.0,28.0,30.21,North,353,0.0,3.6,85,0.00,,---,0.00,VWS V14.01,2013-04-23 04:10:00,
2013-04-22 23:15:00,31.8,27.8,30.18,NNW,342,2.7,2.7,85,0.00,,---,0.00,VWS V14.01,2013-04-23 04:15:00,
2013-04-22 23:20:00,31.8,27.8,30.18,NNW,344,3.6,4.9,85,0.00,,---,0.00,VWS V14.01,2013-04-23 04:20:00,
2013-04-22 23:26:00,31.8,27.8,30.18,NNW,336,3.1,4.0,85,0.00,,---,0.00,VWS V14.01,2013-04-23 04:26:00,
2013-04-22 23:32:00,31.6,27.7,30.18,NNW,335,0.0,0.0,85,0.00,,---,0.00,VWS V14.01,2013-04-23 04:32:00,
2013-04-22 23:37:00,31.6,27.7,30.18,NNW,333,3.6,3.6,85,0.00,,---,0.00,VWS V14.01,2013-04-23 04:37:00,
2013-04-22 23:43:00,31.5,27.5,30.18,NNW,336,3.6,3.6,85,0.00,,---,0.00,VWS V14.01,2013-04-23 04:43:00,
2013-04-22 23:48:00,31.3,27.3,30.18,NW,310,4.9,4.9,85,0.00,,---,0.00,VWS V14.01,2013-04-23 04:48:00,
2013-04-22 23:54:00,31.3,27.3,30.18,NW,322,4.0,4.0,85,0.00,,---,0.00,VWS V14.01,2013-04-23 04:54:00,
2013-04-22 23:59:00,31.3,27.3,30.18,NW,324,3.6,3.6,85,0.00,,---,0.00,VWS V14.01,2013-04-23 04:59:00,